Aviation Digital Data Service (ADDS)

Output produced by TAFs form (0214 UTC 21 April 2018)
found at http://aviationweather.gov/adds/tafs/
 
METAR text: RJFS 210200Z 19005KT CAVOK 19/15 Q1020
Conditions at: RJFS (SAGA AIRPORT , JP) observed 0200 UTC 21 April 2018
Temperature: 19.0°C (66°F)
Dewpoint: 15.0°C (59°F) [RH = 78%]
Pressure (altimeter): 30.12 inches Hg (1020.0 mb)
Winds: from the S (190 degrees) at 6 MPH (5 knots; 2.6 m/s)
Visibility: 6 or more miles (10+ km)
Ceiling: ceiling and visibility are OK
Clouds: unknown
Weather: no significant weather observed at this time

Forecast for: RJFS (SAGA AIRPORT , JP)
Text: TAF RJFS 202312Z 2100/2206 16006KT CAVOK
Forecast period: 0000 to 0600 UTC 21 April 2018
Forecast type: FROM: standard forecast or significant change
Winds: from the SSE (160 degrees) at 7 MPH (6 knots; 3.1 m/s)
Visibility: 6 or more miles (10+ km)
Clouds: not forecast
Weather: NSW  (no significant weather)
Forecast for: RJFS (SAGA AIRPORT , JP)
Text: TAF RJFS 202312Z 2100/2206 16006KT CAVOK
Forecast period: 0000 to 0600 UTC 21 April 2018
Forecast type: FROM: standard forecast or significant change
Winds: from the SSE (160 degrees) at 7 MPH (6 knots; 3.1 m/s)
Visibility: 6 or more miles (10+ km)
Clouds: not forecast
Weather: NSW  (no significant weather)
Forecast for: RJFS (SAGA AIRPORT , JP)
Text: TAF RJFS 202312Z 2100/2206 16006KT CAVOK
Forecast period: 0600 to 1500 UTC 21 April 2018
Forecast type: BECOMING: Conditions expected to become as follows by 0800 UTC 21 April 2018
Winds: from the WSW (240 degrees) at 6 MPH (5 knots; 2.6 m/s)
Visibility: 6 or more miles (10+ km)
Weather: NSW  (no significant weather)
Forecast for: RJFS (SAGA AIRPORT , JP)
Text: TAF RJFS 202312Z 2100/2206 16006KT CAVOK
Forecast period: 0600 to 1500 UTC 21 April 2018
Forecast type: BECOMING: Conditions expected to become as follows by 0800 UTC 21 April 2018
Winds: from the WSW (240 degrees) at 6 MPH (5 knots; 2.6 m/s)
Visibility: 6 or more miles (10+ km)
Weather: NSW  (no significant weather)
Forecast for: RJFS (SAGA AIRPORT , JP)
Text: TAF RJFS 202312Z 2100/2206 16006KT CAVOK
Forecast period: 1500 UTC 21 April 2018 to 0300 UTC 22 April 2018
Forecast type: BECOMING: Conditions expected to become as follows by 1800 UTC 21 April 2018
Winds: from the N (10 degrees) at 5 MPH (4 knots; 2.1 m/s)
Visibility: 6 or more miles (10+ km)
Weather: NSW  (no significant weather)
Forecast for: RJFS (SAGA AIRPORT , JP)
Text: TAF RJFS 202312Z 2100/2206 16006KT CAVOK
Forecast period: 1500 UTC 21 April 2018 to 0300 UTC 22 April 2018
Forecast type: BECOMING: Conditions expected to become as follows by 1800 UTC 21 April 2018
Winds: from the N (10 degrees) at 5 MPH (4 knots; 2.1 m/s)
Visibility: 6 or more miles (10+ km)
Weather: NSW  (no significant weather)
Forecast for: RJFS (SAGA AIRPORT , JP)
Text: TAF RJFS 202312Z 2100/2206 16006KT CAVOK
Forecast period: 0300 to 0600 UTC 22 April 2018
Forecast type: BECOMING: Conditions expected to become as follows by 0600 UTC 22 April 2018
Winds: from the SSW (200 degrees) at 7 MPH (6 knots; 3.1 m/s)
Visibility: 6 or more miles (10+ km)
Weather: NSW  (no significant weather)
Forecast for: RJFS (SAGA AIRPORT , JP)
Text: TAF RJFS 202312Z 2100/2206 16006KT CAVOK
Forecast period: 0300 to 0600 UTC 22 April 2018
Forecast type: BECOMING: Conditions expected to become as follows by 0600 UTC 22 April 2018
Winds: from the SSW (200 degrees) at 7 MPH (6 knots; 3.1 m/s)
Visibility: 6 or more miles (10+ km)
Weather: NSW  (no significant weather)